Louisburg, Minnesota
Current Conditions -  °F | °C
As of 12:13 PM on Friday 19 Dec 2014 (Local Time) from KDXX Reporting Station
Haze Haze  
Wind Chill: 27°   Ceiling: Unl
Heat Index: 34°   Visibility: 5mi
Dew Point: 30°   Wind: 8mph
Humidity: 87%   Direction: 180°S
Pressure: 30.09"   Gusts: NA
Location:  44.9929°N, 96.1617°W
Report Text: KDXX 191813Z AUTO 18007KT 5SM BR CLR 01/M01 A3009 RMK AO2
Loading
Personal Weather Stations






























Interactive Weather Map New forecast layout! Learn more

10-Day Weather Forecast

Advertisements
Track Severe Weather on mobile